createdAt,value
2019-05-10T00:00:42.617Z,78.65
2019-05-10T00:01:42.603Z,78.80
2019-05-10T00:02:42.585Z,78.85
2019-05-10T00:03:42.569Z,78.90
2019-05-10T00:04:42.559Z,79.19
2019-05-10T00:05:42.548Z,78.90
2019-05-10T00:06:42.528Z,79.47
2019-05-10T00:07:42.522Z,79.47
2019-05-10T00:08:42.500Z,80.23
2019-05-10T00:09:42.490Z,80.33
2019-05-10T00:10:42.476Z,80.42
2019-05-10T00:11:42.462Z,80.42
2019-05-10T00:12:42.448Z,80.23
2019-05-10T00:13:42.542Z,80.13
2019-05-10T00:14:42.427Z,80.52
2019-05-10T00:15:42.401Z,80.42
2019-05-10T00:16:42.391Z,80.80
2019-05-10T00:17:42.377Z,81.37
2019-05-10T00:18:42.366Z,81.28
2019-05-10T00:19:42.351Z,81.18
2019-05-10T00:20:42.337Z,81.18
2019-05-10T00:21:42.325Z,81.47
2019-05-10T00:22:42.312Z,81.56
2019-05-10T00:23:42.288Z,81.28
2019-05-10T00:24:42.280Z,81.66
2019-05-10T00:25:42.264Z,81.37
2019-05-10T00:26:42.254Z,80.90
2019-05-10T00:27:42.238Z,81.18
2019-05-10T00:28:42.220Z,80.99
2019-05-10T00:29:42.210Z,80.61
2019-05-10T00:30:42.198Z,80.90
2019-05-10T00:31:42.185Z,80.99
2019-05-10T00:32:42.166Z,80.99
2019-05-10T00:33:42.159Z,81.28
2019-05-10T00:34:42.141Z,81.18
2019-05-10T00:35:42.121Z,80.99
2019-05-10T00:36:42.111Z,81.18
2019-05-10T00:37:42.099Z,80.90
2019-05-10T00:38:42.084Z,80.90
2019-05-10T00:39:42.073Z,81.28
2019-05-10T00:40:42.062Z,80.99
2019-05-10T00:41:42.038Z,80.90
2019-05-10T00:42:42.022Z,80.80
2019-05-10T00:43:42.014Z,80.52
2019-05-10T00:44:41.996Z,80.80
2019-05-10T00:45:41.996Z,80.90
2019-05-10T00:46:41.980Z,81.09
2019-05-10T00:47:41.955Z,80.99
2019-05-10T00:48:41.954Z,81.18
2019-05-10T00:49:41.926Z,81.18
2019-05-10T00:50:41.916Z,81.18
2019-05-10T00:51:41.902Z,81.76
2019-05-10T00:52:41.886Z,80.99
2019-05-10T00:53:41.873Z,80.99
2019-05-10T00:54:41.860Z,81.56
2019-05-10T00:55:41.844Z,81.09
2019-05-10T00:56:41.832Z,81.28
2019-05-10T00:57:41.818Z,81.51
2019-05-10T00:58:41.804Z,81.28
2019-05-10T00:59:41.788Z,80.71
2019-05-10T01:00:41.783Z,81.18
2019-05-10T01:01:41.762Z,81.47
2019-05-10T01:02:41.747Z,81.70
2019-05-10T01:03:41.734Z,81.56
2019-05-10T01:04:41.723Z,80.99
2019-05-10T01:05:41.705Z,81.03
2019-05-10T01:06:41.695Z,81.09
2019-05-10T01:07:41.675Z,81.47
2019-05-10T01:08:41.665Z,81.76
2019-05-10T01:09:41.649Z,81.79
2019-05-10T01:10:41.640Z,81.56
2019-05-10T01:11:41.636Z,81.76
2019-05-10T01:12:41.618Z,81.37
2019-05-10T01:13:41.594Z,80.99
2019-05-10T01:14:41.577Z,81.47
2019-05-10T01:15:41.567Z,81.18
2019-05-10T01:16:41.559Z,81.47
2019-05-10T01:17:41.545Z,81.18
2019-05-10T01:18:41.528Z,81.28
2019-05-10T01:19:41.518Z,81.76
2019-05-10T01:20:41.502Z,81.47
2019-05-10T01:21:41.486Z,81.47
2019-05-10T01:22:41.467Z,81.56
2019-05-10T01:23:41.457Z,82.14
2019-05-10T01:24:41.439Z,81.37
2019-05-10T01:25:41.422Z,81.09
2019-05-10T01:26:41.412Z,81.47
2019-05-10T01:27:41.396Z,81.85
2019-05-10T01:28:41.390Z,81.47
2019-05-10T01:29:41.380Z,81.56
2019-05-10T01:30:41.369Z,81.56
2019-05-10T01:31:41.339Z,81.47
2019-05-10T01:32:41.330Z,81.66
2019-05-10T01:33:41.317Z,81.47
2019-05-10T01:34:41.300Z,81.76
2019-05-10T01:35:41.293Z,81.28
2019-05-10T01:36:41.274Z,81.95
2019-05-10T01:37:41.265Z,81.85
2019-05-10T01:38:41.246Z,81.95
2019-05-10T01:39:41.232Z,81.95
2019-05-10T01:40:41.220Z,82.42
2019-05-10T01:41:41.206Z,82.32
2019-05-10T01:42:41.197Z,83.28
2019-05-10T01:43:41.177Z,83.37
2019-05-10T01:44:41.165Z,83.56
2019-05-10T01:45:41.147Z,83.94
2019-05-10T01:46:41.130Z,84.33
2019-05-10T01:47:41.128Z,83.65
2019-05-10T01:48:41.109Z,83.94
2019-05-10T01:49:41.095Z,83.85
2019-05-10T01:50:41.076Z,83.75
2019-05-10T01:51:41.068Z,83.75
2019-05-10T01:52:41.045Z,83.65
2019-05-10T01:53:41.036Z,83.65
2019-05-10T01:54:41.024Z,83.85
2019-05-10T01:55:51.464Z,84.23
2019-05-10T01:56:40.998Z,84.04
2019-05-10T01:57:40.978Z,83.52
2019-05-10T01:58:40.963Z,84.66
2019-05-10T01:59:40.953Z,85.33
2019-05-10T02:00:40.938Z,85.33
2019-05-10T02:01:40.921Z,86.09
2019-05-10T02:02:40.906Z,86.57
2019-05-10T02:03:40.895Z,86.57
2019-05-10T02:04:40.880Z,86.66
2019-05-10T02:05:40.874Z,86.66
2019-05-10T02:06:40.849Z,86.94
2019-05-10T02:07:40.837Z,87.13
2019-05-10T02:08:40.819Z,87.23
2019-05-10T02:09:40.806Z,86.85
2019-05-10T02:10:40.795Z,87.42
2019-05-10T02:11:40.777Z,87.23
2019-05-10T02:12:40.767Z,87.80
2019-05-10T02:13:40.747Z,88.09
2019-05-10T02:14:40.736Z,87.80
2019-05-10T02:15:40.726Z,87.61
2019-05-10T02:16:40.727Z,87.80
2019-05-10T02:17:40.696Z,87.52
2019-05-10T02:18:40.678Z,87.32
2019-05-10T02:19:40.666Z,86.94
2019-05-10T02:20:40.652Z,86.94
2019-05-10T02:21:40.641Z,86.85
2019-05-10T02:22:40.617Z,86.70
2019-05-10T02:23:40.609Z,87.18
2019-05-10T02:24:40.588Z,86.38
2019-05-10T02:25:40.577Z,86.38
2019-05-10T02:26:40.562Z,86.66
2019-05-10T02:27:40.541Z,86.38
2019-05-10T02:28:40.531Z,86.66
2019-05-10T02:29:40.518Z,86.94
2019-05-10T02:30:40.514Z,86.66
2019-05-10T02:31:40.494Z,86.57
2019-05-10T02:32:40.522Z,86.47
2019-05-10T02:33:40.465Z,86.57
2019-05-10T02:34:40.449Z,86.76
2019-05-10T02:35:40.440Z,86.76
2019-05-10T02:36:40.434Z,86.85
2019-05-10T02:37:40.402Z,86.76
2019-05-10T02:38:40.392Z,86.94
2019-05-10T02:39:40.459Z,87.13
2019-05-10T02:40:40.365Z,87.23
2019-05-10T02:41:40.359Z,87.23
2019-05-10T02:42:40.342Z,86.38
2019-05-10T02:43:40.324Z,86.28
2019-05-10T02:44:40.312Z,86.66
2019-05-10T02:45:40.299Z,86.66
2019-05-10T02:46:40.281Z,86.42
2019-05-10T02:47:40.266Z,86.66
2019-05-10T02:48:40.255Z,86.70
2019-05-10T02:49:40.232Z,86.61
2019-05-10T02:50:40.223Z,86.32
2019-05-10T02:51:40.209Z,86.51
2019-05-10T02:52:40.191Z,86.22
2019-05-10T02:53:40.175Z,86.61
2019-05-10T02:54:40.165Z,86.22
2019-05-10T02:55:40.155Z,86.42
2019-05-10T02:56:40.145Z,86.13
2019-05-10T02:57:40.125Z,86.80
2019-05-10T02:58:40.105Z,86.80
2019-05-10T02:59:40.101Z,86.80
2019-05-10T03:00:40.080Z,86.99
2019-05-10T03:01:40.063Z,86.13
2019-05-10T03:02:40.054Z,86.70
2019-05-10T03:03:40.044Z,86.32
2019-05-10T03:04:40.024Z,86.80
2019-05-10T03:05:40.011Z,86.70
2019-05-10T03:06:40.006Z,86.80
2019-05-10T03:07:40.059Z,86.51
2019-05-10T03:08:39.969Z,86.85
2019-05-10T03:09:39.954Z,87.42
2019-05-10T03:10:39.940Z,87.42
2019-05-10T03:11:39.923Z,87.61
2019-05-10T03:12:40.005Z,87.80
2019-05-10T03:13:39.895Z,87.99
2019-05-10T03:14:39.886Z,87.90
2019-05-10T03:15:39.868Z,87.90
2019-05-10T03:16:39.855Z,87.90
2019-05-10T03:17:39.839Z,87.80
2019-05-10T03:18:39.843Z,87.42
2019-05-10T03:19:39.814Z,87.42
2019-05-10T03:20:39.802Z,87.71
2019-05-10T03:21:39.785Z,87.52
2019-05-10T03:22:39.769Z,87.90
2019-05-10T03:23:39.755Z,87.90
2019-05-10T03:24:39.747Z,87.80
2019-05-10T03:25:39.748Z,87.42
2019-05-10T03:26:50.163Z,87.99
2019-05-10T03:27:39.696Z,87.71
2019-05-10T03:28:39.690Z,87.52
2019-05-10T03:29:39.671Z,87.52
2019-05-10T03:30:39.656Z,86.94
2019-05-10T03:31:39.639Z,87.23
2019-05-10T03:32:39.640Z,87.65
2019-05-10T03:33:39.612Z,87.65
2019-05-10T03:34:39.650Z,87.37
2019-05-10T03:35:39.583Z,87.37
2019-05-10T03:36:39.574Z,86.90
2019-05-10T03:37:39.556Z,87.18
2019-05-10T03:38:39.536Z,86.70
2019-05-10T03:39:39.527Z,86.22
2019-05-10T03:40:39.512Z,86.70
2019-05-10T03:41:39.497Z,86.99
2019-05-10T03:42:39.490Z,86.70
2019-05-10T03:43:39.472Z,86.90
2019-05-10T03:44:39.459Z,86.70
2019-05-10T03:45:39.450Z,86.32
2019-05-10T03:46:39.424Z,86.13
2019-05-10T03:47:39.411Z,86.61
2019-05-10T03:48:39.404Z,86.22
2019-05-10T03:49:39.386Z,86.04
2019-05-10T03:50:39.375Z,86.61
2019-05-10T03:51:39.357Z,87.18
2019-05-10T03:52:39.351Z,87.13
2019-05-10T03:53:39.327Z,87.61
2019-05-10T03:54:39.318Z,87.23
2019-05-10T03:55:39.310Z,87.99
2019-05-10T03:56:39.284Z,88.46
2019-05-10T03:57:39.270Z,89.42
2019-05-10T03:58:39.252Z,89.51
2019-05-10T03:59:39.253Z,89.99
2019-05-10T04:00:39.228Z,90.47
2019-05-10T04:01:39.206Z,90.84
2019-05-10T04:02:39.208Z,90.94
2019-05-10T04:03:39.186Z,90.75
2019-05-10T04:04:39.186Z,91.03
2019-05-10T04:05:39.156Z,91.03
2019-05-10T04:06:39.148Z,90.08
2019-05-10T04:07:39.149Z,90.18
2019-05-10T04:08:39.115Z,90.08
2019-05-10T04:09:39.104Z,89.99
2019-05-10T04:10:39.076Z,89.51
2019-05-10T04:11:39.070Z,90.18
2019-05-10T04:12:39.055Z,90.75
2019-05-10T04:13:39.069Z,90.94
2019-05-10T04:14:39.027Z,90.75
2019-05-10T04:15:39.015Z,90.66
2019-05-10T04:16:39.003Z,91.03
2019-05-10T04:17:38.989Z,91.42
2019-05-10T04:18:38.969Z,90.84
2019-05-10T04:19:38.957Z,91.13
2019-05-10T04:20:38.939Z,90.84
2019-05-10T04:21:38.930Z,91.61
2019-05-10T04:22:38.916Z,91.61
2019-05-10T04:23:38.898Z,91.03
2019-05-10T04:24:38.881Z,90.75
2019-05-10T04:25:38.865Z,91.70
2019-05-10T04:26:38.852Z,91.32
2019-05-10T04:27:38.845Z,91.22
2019-05-10T04:28:38.825Z,91.51
2019-05-10T04:29:38.807Z,91.70
2019-05-10T04:30:38.798Z,92.08
2019-05-10T04:31:38.787Z,91.51
2019-05-10T04:32:38.775Z,92.03
2019-05-10T04:33:38.755Z,91.66
2019-05-10T04:34:38.736Z,92.03
2019-05-10T04:35:38.737Z,92.03
2019-05-10T04:36:38.720Z,92.61
2019-05-10T04:37:38.696Z,92.61
2019-05-10T04:38:38.676Z,92.61
2019-05-10T04:39:38.668Z,92.99
2019-05-10T04:40:38.654Z,93.55
2019-05-10T04:41:38.633Z,94.03
2019-05-10T04:42:38.625Z,93.94
2019-05-10T04:43:38.610Z,94.42
2019-05-10T04:44:38.601Z,94.60
2019-05-10T04:45:38.574Z,94.89
2019-05-10T04:46:38.661Z,94.79
2019-05-10T04:47:38.550Z,95.27
2019-05-10T04:48:38.537Z,95.65
2019-05-10T04:49:38.520Z,95.56
2019-05-10T04:50:38.506Z,95.65
2019-05-10T04:51:38.515Z,95.46
2019-05-10T04:52:38.480Z,95.84
2019-05-10T04:53:38.464Z,95.84
2019-05-10T04:54:38.453Z,95.17
2019-05-10T04:55:38.508Z,94.60
2019-05-10T04:56:38.422Z,94.60
2019-05-10T04:57:50.091Z,94.32
2019-05-10T04:58:38.393Z,94.03
2019-05-10T04:59:38.375Z,93.84
2019-05-10T05:00:38.360Z,93.84
2019-05-10T05:01:38.348Z,94.22
2019-05-10T05:02:38.346Z,93.84
2019-05-10T05:03:38.314Z,93.27
2019-05-10T05:04:38.304Z,92.99
2019-05-10T05:05:38.283Z,92.99
2019-05-10T05:06:38.275Z,93.04
2019-05-10T05:07:38.259Z,93.04
2019-05-10T05:08:38.243Z,93.51
2019-05-10T05:09:38.225Z,92.80
2019-05-10T05:10:38.246Z,93.32
2019-05-10T05:11:38.200Z,93.27
2019-05-10T05:12:38.188Z,93.08
2019-05-10T05:13:38.170Z,93.13
2019-05-10T05:14:38.153Z,93.23
2019-05-10T05:15:38.137Z,93.41
2019-05-10T05:16:38.123Z,93.79
2019-05-10T05:17:38.111Z,93.32
2019-05-10T05:18:38.093Z,93.23
2019-05-10T05:19:40.854Z,92.65
2019-05-10T05:20:38.072Z,92.75
2019-05-10T05:21:38.054Z,92.84
2019-05-10T05:22:38.036Z,91.89
2019-05-10T05:23:38.022Z,92.36
2019-05-10T05:24:38.015Z,92.08
2019-05-10T05:25:40.300Z,91.70
2019-05-10T05:26:37.982Z,92.08
2019-05-10T05:27:37.963Z,91.42
2019-05-10T05:28:37.951Z,91.61
2019-05-10T05:29:37.935Z,91.13
2019-05-10T05:30:38.877Z,91.32
2019-05-10T05:31:37.913Z,91.13
2019-05-10T05:32:38.485Z,90.56
2019-05-10T05:33:37.880Z,91.03
2019-05-10T05:34:37.866Z,90.94
2019-05-10T05:35:37.842Z,90.84
2019-05-10T05:36:37.836Z,90.94
2019-05-10T05:37:37.822Z,89.99
2019-05-10T05:38:40.346Z,89.99
2019-05-10T05:39:37.788Z,89.65
2019-05-10T05:40:37.774Z,89.56
2019-05-10T05:41:47.882Z,89.65
2019-05-10T05:42:37.747Z,89.75
2019-05-10T05:43:45.788Z,88.89
2019-05-10T05:44:37.719Z,89.47
2019-05-10T05:45:37.708Z,88.89
2019-05-10T05:46:37.695Z,88.85
2019-05-10T05:47:42.138Z,89.32
2019-05-10T05:48:40.395Z,89.14
2019-05-10T05:49:37.646Z,89.61
2019-05-10T05:50:37.633Z,89.70
2019-05-10T05:51:37.617Z,89.42
2019-05-10T05:52:37.599Z,89.99
2019-05-10T05:53:42.189Z,89.80
2019-05-10T05:54:37.576Z,89.89
2019-05-10T05:55:37.566Z,89.89
2019-05-10T05:56:37.554Z,89.51
2019-05-10T05:57:37.529Z,89.14
2019-05-10T05:58:38.067Z,89.32
2019-05-10T05:59:37.501Z,89.32
2019-05-10T06:00:44.061Z,89.04
2019-05-10T06:01:37.470Z,89.51
2019-05-10T06:02:43.950Z,90.56
2019-05-10T06:03:37.652Z,89.89
2019-05-10T06:04:40.720Z,90.18
2019-05-10T06:05:37.530Z,90.66
2019-05-10T06:06:37.399Z,90.84
2019-05-10T06:07:38.309Z,90.75
2019-05-10T06:08:37.371Z,90.75
2019-05-10T06:09:37.918Z,90.56
2019-05-10T06:10:37.343Z,91.13
2019-05-10T06:11:37.890Z,90.84
2019-05-10T06:12:37.311Z,90.75
2019-05-10T06:13:37.298Z,90.94
2019-05-10T06:14:37.376Z,91.03
2019-05-10T06:15:37.278Z,90.75
2019-05-10T06:16:37.261Z,91.03
2019-05-10T06:17:37.265Z,91.13
2019-05-10T06:18:41.706Z,90.66
2019-05-10T06:19:37.212Z,90.84
2019-05-10T06:20:38.128Z,90.75
2019-05-10T06:21:37.185Z,89.99
2019-05-10T06:22:38.260Z,90.08
2019-05-10T06:23:37.158Z,90.18
2019-05-10T06:24:37.139Z,89.75
2019-05-10T06:25:40.002Z,89.51
2019-05-10T06:26:37.113Z,89.18
2019-05-10T06:27:41.103Z,89.37
2019-05-10T06:28:57.681Z,88.99
2019-05-10T06:29:37.072Z,89.08
2019-05-10T06:30:37.055Z,89.18
2019-05-10T06:31:37.045Z,89.37
2019-05-10T06:32:37.031Z,89.47
2019-05-10T06:33:39.683Z,89.18
2019-05-10T06:34:38.938Z,89.27
2019-05-10T06:35:36.982Z,89.18
2019-05-10T06:36:36.976Z,88.79
2019-05-10T06:37:36.952Z,88.23
2019-05-10T06:38:36.946Z,88.23
2019-05-10T06:39:36.919Z,88.23
2019-05-10T06:40:44.532Z,88.04
2019-05-10T06:41:36.893Z,87.85
2019-05-10T06:42:36.894Z,87.85
2019-05-10T06:43:36.865Z,88.32
2019-05-10T06:44:36.854Z,88.51
2019-05-10T06:45:36.835Z,88.79
2019-05-10T06:46:36.824Z,88.13
2019-05-10T06:47:41.914Z,87.75
2019-05-10T06:48:36.792Z,87.27
2019-05-10T06:49:41.624Z,86.70
2019-05-10T06:50:36.780Z,85.85
2019-05-10T06:51:36.750Z,85.28
2019-05-10T06:52:36.742Z,85.37
2019-05-10T06:53:42.272Z,85.18
2019-05-10T06:54:36.707Z,84.80
2019-05-10T06:55:36.707Z,84.70
2019-05-10T06:56:36.685Z,83.47
2019-05-10T06:57:36.665Z,83.65
2019-05-10T06:58:38.447Z,84.04
2019-05-10T06:59:36.642Z,83.28
2019-05-10T07:00:38.077Z,83.47
2019-05-10T07:01:38.507Z,83.37
2019-05-10T07:02:36.596Z,83.94
2019-05-10T07:03:36.579Z,84.70
2019-05-10T07:04:40.972Z,84.52
2019-05-10T07:05:36.552Z,84.89
2019-05-10T07:06:36.539Z,85.08
2019-05-10T07:07:43.934Z,85.18
2019-05-10T07:08:44.226Z,85.37
2019-05-10T07:10:01.781Z,85.08
2019-05-10T07:10:36.473Z,85.18
2019-05-10T07:11:36.466Z,84.99
2019-05-10T07:12:36.486Z,84.80
2019-05-10T07:13:40.557Z,84.33
2019-05-10T07:14:36.425Z,85.08
2019-05-10T07:15:42.351Z,85.56
2019-05-10T07:16:36.395Z,86.22
2019-05-10T07:17:41.361Z,86.42
2019-05-10T07:18:36.366Z,86.32
2019-05-10T07:19:42.067Z,86.61
2019-05-10T07:20:36.340Z,85.75
2019-05-10T07:21:39.113Z,84.89
2019-05-10T07:22:36.311Z,83.94
2019-05-10T07:23:38.984Z,83.80
2019-05-10T07:24:36.283Z,83.98
2019-05-10T07:25:37.952Z,83.61
2019-05-10T07:26:36.254Z,82.80
2019-05-10T07:27:38.207Z,82.27
2019-05-10T07:28:36.224Z,81.95
2019-05-10T07:29:42.721Z,81.51
2019-05-10T07:30:36.198Z,82.37
2019-05-10T07:31:36.182Z,81.98
2019-05-10T07:32:36.177Z,81.79
2019-05-10T07:33:37.316Z,81.70
2019-05-10T07:34:36.139Z,81.79
2019-05-10T07:35:37.244Z,81.89
2019-05-10T07:36:36.111Z,81.70
2019-05-10T07:37:36.095Z,81.41
2019-05-10T07:38:36.080Z,81.32
2019-05-10T07:39:36.063Z,81.51
2019-05-10T07:40:36.088Z,81.70
2019-05-10T07:41:36.048Z,80.27
2019-05-10T07:42:39.859Z,81.51
2019-05-10T07:43:36.013Z,81.03
2019-05-10T07:44:35.997Z,80.18
2019-05-10T07:45:35.991Z,79.99
2019-05-10T07:46:39.870Z,79.93
2019-05-10T07:47:36.001Z,81.07
2019-05-10T07:48:41.029Z,81.17
2019-05-10T07:49:35.931Z,81.36
2019-05-10T07:50:35.915Z,82.03
2019-05-10T07:51:35.903Z,81.36
2019-05-10T07:52:36.316Z,81.17
2019-05-10T07:53:35.870Z,80.98
2019-05-10T07:54:37.728Z,81.23
2019-05-10T07:55:35.848Z,81.17
2019-05-10T07:56:38.964Z,81.07
2019-05-10T07:57:35.814Z,80.31
2019-05-10T07:58:38.268Z,80.02
2019-05-10T07:59:49.613Z,80.79
2019-05-10T08:00:38.265Z,81.93
2019-05-10T08:01:35.764Z,80.69
2019-05-10T08:02:35.747Z,80.69
2019-05-10T08:03:41.058Z,80.41
2019-05-10T08:04:35.725Z,79.93
2019-05-10T08:05:35.709Z,80.31
2019-05-10T08:06:43.445Z,79.55
2019-05-10T08:07:35.680Z,78.92
2019-05-10T08:08:35.668Z,79.02
2019-05-10T08:09:37.130Z,79.59
2019-05-10T08:10:35.645Z,77.59
2019-05-10T08:11:35.625Z,76.73
2019-05-10T08:12:41.317Z,76.44
2019-05-10T08:13:35.595Z,77.01
2019-05-10T08:14:35.585Z,77.01
2019-05-10T08:15:35.573Z,75.78
2019-05-10T08:16:35.561Z,75.20
2019-05-10T08:17:40.259Z,75.30
2019-05-10T08:18:35.527Z,74.92
2019-05-10T08:19:37.499Z,75.59
2019-05-10T08:20:46.600Z,75.53
2019-05-10T08:21:35.493Z,75.72
2019-05-10T08:22:41.413Z,75.62
2019-05-10T08:23:35.460Z,74.77
2019-05-10T08:24:35.627Z,74.06
2019-05-10T08:25:40.985Z,74.35
2019-05-10T08:26:35.426Z,74.48
2019-05-10T08:27:35.406Z,75.05
2019-05-10T08:28:37.858Z,74.57
2019-05-10T08:29:35.386Z,75.15
2019-05-10T08:30:35.371Z,75.34
2019-05-10T08:31:40.620Z,75.53
2019-05-10T08:32:35.343Z,75.15
2019-05-10T08:33:35.346Z,74.29
2019-05-10T08:34:39.209Z,74.29
2019-05-10T08:35:36.697Z,73.91
2019-05-10T08:36:37.202Z,74.10
2019-05-10T08:37:37.780Z,74.29
2019-05-10T08:38:39.556Z,74.01
2019-05-10T08:39:45.276Z,74.10
2019-05-10T08:40:37.989Z,74.10
2019-05-10T08:41:35.248Z,73.62
2019-05-10T08:42:44.188Z,73.72
2019-05-10T08:43:39.011Z,73.62
2019-05-10T08:44:35.175Z,73.62
2019-05-10T08:45:38.657Z,73.43
2019-05-10T08:46:40.952Z,73.33
2019-05-10T08:47:35.144Z,73.43
2019-05-10T08:48:38.093Z,74.35
2019-05-10T08:49:44.056Z,75.01
2019-05-10T08:50:49.636Z,75.87
2019-05-10T08:51:44.188Z,75.20
2019-05-10T08:52:35.073Z,75.49
2019-05-10T08:53:35.059Z,75.78
2019-05-10T08:54:35.048Z,76.35
2019-05-10T08:55:35.036Z,75.49
2019-05-10T08:56:35.024Z,75.11
2019-05-10T08:57:43.306Z,75.87
2019-05-10T08:58:37.226Z,75.68
2019-05-10T08:59:34.981Z,75.78
2019-05-10T09:00:49.335Z,75.59
2019-05-10T09:01:44.707Z,75.11
2019-05-10T09:02:34.940Z,75.49
2019-05-10T09:03:34.926Z,74.73
2019-05-10T09:04:42.760Z,74.73
2019-05-10T09:05:34.905Z,75.11
2019-05-10T09:06:34.886Z,75.49
2019-05-10T09:07:38.832Z,75.30
2019-05-10T09:08:34.919Z,76.35
2019-05-10T09:09:45.731Z,75.78
2019-05-10T09:10:34.831Z,75.40
2019-05-10T09:11:34.820Z,77.15
2019-05-10T09:12:34.809Z,76.29
2019-05-10T09:13:40.990Z,75.43
2019-05-10T09:14:34.779Z,75.34
2019-05-10T09:15:34.763Z,74.19
2019-05-10T09:16:41.207Z,74.29
2019-05-10T09:17:34.739Z,74.96
2019-05-10T09:18:38.017Z,75.24
2019-05-10T09:19:40.553Z,74.19
2019-05-10T09:20:34.694Z,73.05
2019-05-10T09:21:34.686Z,72.96
2019-05-10T09:22:38.530Z,72.86
2019-05-10T09:23:34.655Z,72.51
2019-05-10T09:24:40.104Z,72.03
2019-05-10T09:25:34.633Z,71.59
2019-05-10T09:26:34.617Z,70.16
2019-05-10T09:27:34.614Z,69.78
2019-05-10T09:28:34.593Z,70.16
2019-05-10T09:29:37.245Z,70.16
2019-05-10T09:30:35.645Z,68.35
2019-05-10T09:31:34.551Z,67.68
2019-05-10T09:32:34.542Z,68.16
2019-05-10T09:33:34.527Z,68.73
2019-05-10T09:34:34.511Z,69.78
2019-05-10T09:35:38.910Z,68.54
2019-05-10T09:36:36.303Z,69.31
2019-05-10T09:37:34.477Z,68.92
2019-05-10T09:38:39.081Z,66.72
2019-05-10T09:39:34.455Z,65.77
2019-05-10T09:40:34.441Z,64.34
2019-05-10T09:41:38.208Z,65.42
2019-05-10T09:42:39.926Z,65.42
2019-05-10T09:43:34.400Z,65.61
2019-05-10T09:44:34.383Z,65.71
2019-05-10T09:45:34.379Z,66.66
2019-05-10T09:46:34.366Z,66.76
2019-05-10T09:47:34.352Z,65.14
2019-05-10T09:48:34.338Z,64.18
2019-05-10T09:49:34.324Z,64.94
2019-05-10T09:50:40.993Z,66.19
2019-05-10T09:51:34.293Z,67.05
2019-05-10T09:52:34.287Z,66.47
2019-05-10T09:53:34.267Z,65.90
2019-05-10T09:54:34.259Z,66.19
2019-05-10T09:55:34.251Z,68.00
2019-05-10T09:56:39.470Z,67.43
2019-05-10T09:57:34.222Z,66.09
2019-05-10T09:58:34.214Z,65.39
2019-05-10T09:59:34.200Z,65.14
2019-05-10T10:00:34.190Z,65.71
2019-05-10T10:01:34.174Z,64.28
2019-05-10T10:02:34.160Z,64.62
2019-05-10T10:03:39.887Z,63.99
2019-05-10T10:04:34.138Z,66.38
2019-05-10T10:05:34.121Z,66.76
2019-05-10T10:06:34.110Z,65.61
2019-05-10T10:07:34.100Z,64.56
2019-05-10T10:08:34.090Z,63.93
2019-05-10T10:09:41.968Z,65.84
2019-05-10T10:10:34.071Z,64.02
2019-05-10T10:11:34.066Z,63.83
2019-05-10T10:12:34.045Z,62.01
2019-05-10T10:13:43.087Z,61.72
2019-05-10T10:14:39.422Z,62.01
2019-05-10T10:15:34.427Z,62.21
2019-05-10T10:16:33.995Z,62.87
2019-05-10T10:17:39.497Z,61.60
2019-05-10T10:18:33.967Z,62.30
2019-05-10T10:19:33.953Z,63.93
2019-05-10T10:20:35.935Z,63.35
2019-05-10T10:21:35.596Z,61.63
2019-05-10T10:22:33.933Z,62.59
2019-05-10T10:23:37.220Z,62.59
2019-05-10T10:24:33.890Z,61.41
2019-05-10T10:25:35.185Z,60.93
2019-05-10T10:26:33.869Z,60.93
2019-05-10T10:27:36.059Z,61.13
2019-05-10T10:28:37.216Z,60.64
2019-05-10T10:29:35.958Z,60.74
2019-05-10T10:30:33.823Z,62.27
2019-05-10T10:31:39.187Z,63.45
2019-05-10T10:32:34.911Z,62.84
2019-05-10T10:33:33.777Z,61.44
2019-05-10T10:34:38.726Z,61.79
2019-05-10T10:35:33.753Z,61.98
2019-05-10T10:36:33.759Z,62.11
2019-05-10T10:37:33.732Z,62.40
2019-05-10T10:38:37.166Z,63.16
2019-05-10T10:39:33.711Z,63.83
2019-05-10T10:40:35.332Z,62.78
2019-05-10T10:41:33.684Z,62.21
2019-05-10T10:42:33.675Z,63.16
2019-05-10T10:43:33.660Z,62.87
2019-05-10T10:44:33.649Z,62.01
2019-05-10T10:45:33.633Z,61.66
2019-05-10T10:46:34.685Z,62.62
2019-05-10T10:47:33.618Z,62.62
2019-05-10T10:48:33.597Z,62.33
2019-05-10T10:49:33.591Z,62.78
2019-05-10T10:50:33.577Z,63.86
2019-05-10T10:51:34.533Z,63.39
2019-05-10T10:52:33.553Z,63.67
2019-05-10T10:53:33.539Z,63.86
2019-05-10T10:54:36.681Z,62.62
2019-05-10T10:55:36.874Z,62.52
2019-05-10T10:56:33.503Z,61.85
2019-05-10T10:57:33.502Z,61.19
2019-05-10T10:58:33.481Z,60.35
2019-05-10T10:59:33.471Z,59.11
2019-05-10T11:00:33.465Z,60.06
2019-05-10T11:01:47.239Z,61.12
2019-05-10T11:02:34.126Z,61.02
2019-05-10T11:03:33.439Z,60.45
2019-05-10T11:04:33.411Z,60.83
2019-05-10T11:05:33.398Z,60.83
2019-05-10T11:06:33.391Z,60.06
2019-05-10T11:07:35.964Z,60.74
2019-05-10T11:08:33.429Z,60.16
2019-05-10T11:09:33.350Z,60.45
2019-05-10T11:10:33.336Z,60.80
2019-05-10T11:11:38.894Z,62.04
2019-05-10T11:12:33.316Z,60.99
2019-05-10T11:13:44.960Z,61.66
2019-05-10T11:14:40.016Z,60.80
2019-05-10T11:15:36.127Z,60.13
2019-05-10T11:16:33.271Z,61.76
2019-05-10T11:17:33.249Z,61.57
2019-05-10T11:18:33.247Z,62.04
2019-05-10T11:19:33.239Z,62.04
2019-05-10T11:20:33.225Z,61.57
2019-05-10T11:21:33.407Z,62.14
2019-05-10T11:22:33.198Z,62.90
2019-05-10T11:23:38.675Z,61.47
2019-05-10T11:24:33.178Z,62.43
2019-05-10T11:25:33.158Z,62.90
2019-05-10T11:26:36.832Z,62.24
2019-05-10T11:27:33.139Z,62.04
2019-05-10T11:28:38.887Z,62.33
2019-05-10T11:29:33.118Z,61.95
2019-05-10T11:30:33.106Z,61.85
2019-05-10T11:31:33.093Z,61.57
2019-05-10T11:32:33.084Z,62.24
2019-05-10T11:33:33.829Z,61.95
2019-05-10T11:34:37.366Z,61.95
2019-05-10T11:35:34.652Z,62.33
2019-05-10T11:36:33.032Z,61.76
2019-05-10T11:37:36.476Z,61.66
2019-05-10T11:38:33.007Z,62.81
2019-05-10T11:39:40.746Z,62.52
2019-05-10T11:40:35.209Z,62.62
2019-05-10T11:41:32.972Z,62.52
2019-05-10T11:42:37.499Z,62.24
2019-05-10T11:43:32.950Z,61.66
2019-05-10T11:44:32.936Z,63.67
2019-05-10T11:45:35.321Z,63.86
2019-05-10T11:46:32.915Z,63.29
2019-05-10T11:47:32.896Z,63.48
2019-05-10T11:48:37.273Z,63.96
2019-05-10T11:49:32.879Z,63.96
2019-05-10T11:50:35.571Z,62.37
2019-05-10T11:51:32.860Z,61.98
2019-05-10T11:52:34.820Z,61.79
2019-05-10T11:53:32.833Z,62.11
2019-05-10T11:54:32.819Z,61.72
2019-05-10T11:55:35.787Z,63.39
2019-05-10T11:56:32.799Z,61.76
2019-05-10T11:57:33.123Z,61.08
2019-05-10T11:58:37.547Z,61.66
2019-05-10T11:59:38.252Z,59.48
2019-05-10T12:00:34.376Z,56.42
2019-05-10T12:01:32.741Z,56.32
2019-05-10T12:02:38.352Z,56.90
2019-05-10T12:03:32.716Z,56.87
2019-05-10T12:04:38.924Z,57.38
2019-05-10T12:05:32.692Z,57.83
2019-05-10T12:06:32.679Z,57.48
2019-05-10T12:07:42.434Z,57.76
2019-05-10T12:08:32.682Z,58.91
2019-05-10T12:09:32.650Z,57.28
2019-05-10T12:10:32.643Z,56.81
2019-05-10T12:11:34.039Z,57.95
2019-05-10T12:12:50.083Z,58.81
2019-05-10T12:13:32.810Z,60.16
2019-05-10T12:14:32.591Z,59.30
2019-05-10T12:15:32.577Z,57.95
2019-05-10T12:16:33.573Z,56.81
2019-05-10T12:17:32.559Z,58.44
2019-05-10T12:18:36.161Z,57.95
2019-05-10T12:20:54.323Z,57.45
2019-05-10T12:21:33.324Z,57.73
2019-05-10T12:22:38.146Z,58.22
2019-05-10T12:23:32.497Z,58.88
2019-05-10T12:24:46.815Z,59.17
2019-05-10T12:25:46.340Z,57.92
2019-05-10T12:26:20.112Z,57.26
2019-05-10T12:27:13.278Z,56.71
2019-05-10T12:27:44.343Z,55.94
2019-05-10T12:28:35.523Z,55.94
2019-05-10T12:29:32.431Z,57.09
2019-05-10T12:30:35.064Z,56.74
2019-05-10T12:31:32.410Z,56.64
2019-05-10T12:32:36.809Z,57.70
2019-05-10T12:33:32.387Z,56.38
2019-05-10T12:34:32.375Z,54.94
2019-05-10T12:35:39.355Z,56.86
2019-05-10T12:36:32.354Z,57.75
2019-05-10T12:37:32.347Z,55.64
2019-05-10T12:38:35.684Z,55.16
2019-05-10T12:39:32.321Z,54.30
2019-05-10T12:40:32.315Z,53.79
2019-05-10T12:41:32.307Z,54.97
2019-05-10T12:42:32.290Z,55.07
2019-05-10T12:43:32.280Z,52.83
2019-05-10T12:44:33.488Z,52.83
2019-05-10T12:45:32.262Z,53.60
2019-05-10T12:46:32.254Z,53.03
2019-05-10T12:47:33.775Z,53.03
2019-05-10T12:48:35.418Z,53.03
2019-05-10T12:49:32.219Z,52.64
2019-05-10T12:50:32.217Z,53.60
2019-05-10T12:51:32.207Z,54.27
2019-05-10T12:52:32.272Z,53.50